N682B SABE-SAZN
Flight info
| Callsign | N682B |
|---|---|
| Flight time | 1h 35m |
| Altitude | 37000 |
| Route | PAL9 TORUL UT654 BIXIM UT669 TIMDO |
| Aircraft | C700/M-SBDGHM1RWXY/LB2 |
Departure
| Time | 2026-04-23 23:23 |
|---|---|
| Airport | Aeroparque Jorge Newbery (SABE) |
Arrival
| Time | 2026-04-24 00:58 |
|---|---|
| Airport | Presidente Perón International Airport (SAZN) |
| Time | Latitude | Longitude | Altitude | Speed | Heading |
|---|---|---|---|---|---|
| 2026-04-23 23:10 | -34.56217 | -58.41362 | 21 ft | 0 kts | 34° |
| 2026-04-23 23:16 | -34.56227 | -58.41370 | 22 ft | 2 kts | 34° |
| 2026-04-23 23:17 | -34.56241 | -58.41380 | 22 ft | 2 kts | 356° |
| 2026-04-23 23:17 | -34.56250 | -58.41374 | 21 ft | 0 kts | 302° |
| 2026-04-23 23:18 | -34.56249 | -58.41377 | 21 ft | 4 kts | 302° |
| 2026-04-23 23:18 | -34.56197 | -58.41471 | 21 ft | 14 kts | 313° |
| 2026-04-23 23:18 | -34.56140 | -58.41457 | 21 ft | 10 kts | 28° |
| 2026-04-23 23:19 | -34.56039 | -58.41376 | 21 ft | 25 kts | 34° |
| 2026-04-23 23:19 | -34.55928 | -58.41303 | 22 ft | 11 kts | 343° |
| 2026-04-23 23:19 | -34.55885 | -58.41392 | 23 ft | 14 kts | 296° |
| 2026-04-23 23:19 | -34.55828 | -58.41528 | 22 ft | 22 kts | 298° |
| 2026-04-23 23:20 | -34.55755 | -58.41703 | 22 ft | 25 kts | 296° |
| 2026-04-23 23:20 | -34.55659 | -58.41893 | 23 ft | 28 kts | 308° |
| 2026-04-23 23:20 | -34.55549 | -58.42073 | 22 ft | 24 kts | 305° |
| 2026-04-23 23:20 | -34.55457 | -58.42226 | 23 ft | 21 kts | 305° |
| 2026-04-23 23:21 | -34.55385 | -58.42345 | 23 ft | 12 kts | 306° |
| 2026-04-23 23:21 | -34.55382 | -58.42349 | 23 ft | 0 kts | 306° |
| 2026-04-23 23:21 | -34.55381 | -58.42350 | 22 ft | 4 kts | 306° |
| 2026-04-23 23:22 | -34.55364 | -58.42483 | 22 ft | 22 kts | 245° |
| 2026-04-23 23:22 | -34.55436 | -58.42452 | 21 ft | 6 kts | 124° |
| 2026-04-23 23:22 | -34.55438 | -58.42449 | 21 ft | 0 kts | 123° |
| 2026-04-23 23:22 | -34.55646 | -58.42071 | 22 ft | 112 kts | 123° |
| 2026-04-23 23:23 | -34.56264 | -58.41010 | 287 ft | 184 kts | 122° |
| 2026-04-23 23:23 | -34.57003 | -58.39544 | 1297 ft | 219 kts | 120° |
| 2026-04-23 23:23 | -34.57580 | -58.37783 | 2574 ft | 247 kts | 102° |
| 2026-04-23 23:23 | -34.57447 | -58.35646 | 3843 ft | 268 kts | 75° |
| 2026-04-23 23:24 | -34.56527 | -58.33923 | 4825 ft | 227 kts | 44° |
| 2026-04-23 23:24 | -34.55352 | -58.32671 | 5000 ft | 226 kts | 43° |
| 2026-04-23 23:24 | -34.54279 | -58.31250 | 5000 ft | 230 kts | 53° |
| 2026-04-23 23:24 | -34.53104 | -58.29922 | 4996 ft | 234 kts | 27° |
| 2026-04-23 23:25 | -34.51527 | -58.29678 | 5000 ft | 237 kts | 344° |
| 2026-04-23 23:25 | -34.50275 | -58.30738 | 5601 ft | 216 kts | 304° |
| 2026-04-23 23:25 | -34.49795 | -58.32492 | 6278 ft | 231 kts | 267° |
| 2026-04-23 23:25 | -34.50359 | -58.34363 | 6961 ft | 249 kts | 234° |
| 2026-04-23 23:26 | -34.51576 | -58.35950 | 7668 ft | 263 kts | 225° |
| 2026-04-23 23:26 | -34.52915 | -58.37499 | 8383 ft | 269 kts | 226° |
| 2026-04-23 23:26 | -34.54235 | -58.39133 | 9110 ft | 273 kts | 229° |
| 2026-04-23 23:26 | -34.55530 | -58.40793 | 9839 ft | 276 kts | 229° |
| 2026-04-23 23:27 | -34.56869 | -58.42487 | 10537 ft | 281 kts | 229° |
| 2026-04-23 23:27 | -34.58255 | -58.44235 | 11224 ft | 293 kts | 229° |
| 2026-04-23 23:27 | -34.59700 | -58.46055 | 11930 ft | 302 kts | 229° |
| 2026-04-23 23:27 | -34.61148 | -58.47884 | 12634 ft | 307 kts | 229° |
| 2026-04-23 23:28 | -34.62634 | -58.49759 | 13472 ft | 307 kts | 229° |
| 2026-04-23 23:28 | -34.64114 | -58.51630 | 14329 ft | 308 kts | 230° |
| 2026-04-23 23:28 | -34.65609 | -58.53522 | 15125 ft | 311 kts | 230° |
| 2026-04-23 23:28 | -34.67101 | -58.55413 | 15941 ft | 311 kts | 231° |
| 2026-04-23 23:29 | -34.68601 | -58.57310 | 16722 ft | 310 kts | 231° |
| 2026-04-23 23:29 | -34.70096 | -58.59203 | 17515 ft | 309 kts | 231° |
| 2026-04-23 23:29 | -34.71581 | -58.61086 | 18283 ft | 308 kts | 232° |
| 2026-04-23 23:29 | -34.73066 | -58.62970 | 18959 ft | 307 kts | 232° |
| 2026-04-23 23:30 | -34.74530 | -58.64828 | 19610 ft | 306 kts | 233° |
| 2026-04-23 23:30 | -34.76013 | -58.66710 | 20281 ft | 303 kts | 233° |
| 2026-04-23 23:30 | -34.77452 | -58.68537 | 20943 ft | 300 kts | 233° |
| 2026-04-23 23:30 | -34.78894 | -58.70371 | 21607 ft | 297 kts | 234° |
| 2026-04-23 23:31 | -34.80312 | -58.72174 | 22268 ft | 293 kts | 234° |
| 2026-04-23 23:31 | -34.81735 | -58.73994 | 22952 ft | 303 kts | 234° |
| 2026-04-23 23:31 | -34.83200 | -58.75871 | 23767 ft | 316 kts | 234° |
| 2026-04-23 23:31 | -34.84749 | -58.77840 | 24458 ft | 328 kts | 234° |
| 2026-04-23 23:32 | -34.86354 | -58.79881 | 25190 ft | 338 kts | 235° |
| 2026-04-23 23:32 | -34.88007 | -58.81988 | 25944 ft | 347 kts | 235° |
| 2026-04-23 23:32 | -34.89694 | -58.84142 | 26711 ft | 355 kts | 235° |
| 2026-04-23 23:32 | -34.91420 | -58.86347 | 27503 ft | 361 kts | 235° |
| 2026-04-23 23:33 | -34.93145 | -58.88549 | 28303 ft | 367 kts | 236° |
| 2026-04-23 23:33 | -34.94913 | -58.90808 | 29136 ft | 371 kts | 236° |
| 2026-04-23 23:33 | -34.96711 | -58.93108 | 30000 ft | 374 kts | 236° |
| 2026-04-23 23:33 | -34.98515 | -58.95418 | 30765 ft | 376 kts | 237° |
| 2026-04-23 23:34 | -35.00318 | -58.97728 | 31519 ft | 377 kts | 237° |
| 2026-04-23 23:34 | -35.02135 | -59.00057 | 32292 ft | 377 kts | 237° |
| 2026-04-23 23:34 | -35.03922 | -59.02348 | 33083 ft | 377 kts | 237° |
| 2026-04-23 23:34 | -35.05727 | -59.04666 | 33896 ft | 375 kts | 238° |
| 2026-04-23 23:35 | -35.07522 | -59.06972 | 34634 ft | 373 kts | 238° |
| 2026-04-23 23:35 | -35.09306 | -59.09263 | 35358 ft | 370 kts | 238° |
| 2026-04-23 23:35 | -35.11070 | -59.11532 | 36098 ft | 367 kts | 238° |
| 2026-04-23 23:35 | -35.12824 | -59.13791 | 36866 ft | 362 kts | 238° |
| 2026-04-23 23:36 | -35.14525 | -59.15982 | 37643 ft | 358 kts | 239° |
| 2026-04-23 23:36 | -35.16240 | -59.18196 | 38145 ft | 361 kts | 239° |
| 2026-04-23 23:36 | -35.17989 | -59.20480 | 38138 ft | 376 kts | 238° |
| 2026-04-23 23:36 | -35.19821 | -59.22851 | 38151 ft | 391 kts | 238° |
| 2026-04-23 23:37 | -35.21732 | -59.25305 | 38160 ft | 404 kts | 237° |
| 2026-04-23 23:37 | -35.23682 | -59.27820 | 38163 ft | 417 kts | 237° |
| 2026-04-23 23:37 | -35.25709 | -59.30449 | 38154 ft | 430 kts | 237° |
| 2026-04-23 23:38 | -35.29851 | -59.35789 | 38161 ft | 430 kts | 237° |
| 2026-04-23 23:38 | -35.33914 | -59.41071 | 38156 ft | 424 kts | 237° |
| 2026-04-23 23:39 | -35.37653 | -59.46523 | 38151 ft | 410 kts | 244° |
| 2026-04-23 23:39 | -35.40971 | -59.52191 | 38157 ft | 407 kts | 244° |
| 2026-04-23 23:40 | -35.44248 | -59.57781 | 38154 ft | 403 kts | 244° |
| 2026-04-23 23:40 | -35.47502 | -59.63355 | 38152 ft | 401 kts | 244° |
| 2026-04-23 23:41 | -35.50774 | -59.68976 | 38152 ft | 414 kts | 244° |
| 2026-04-23 23:41 | -35.52478 | -59.71912 | 38152 ft | 427 kts | 244° |
| 2026-04-23 23:41 | -35.54204 | -59.74850 | 38143 ft | 417 kts | 243° |
| 2026-04-23 23:42 | -35.57610 | -59.80712 | 38153 ft | 417 kts | 244° |
| 2026-04-23 23:42 | -35.59261 | -59.83521 | 38147 ft | 391 kts | 244° |
| 2026-04-23 23:42 | -35.60802 | -59.86156 | 38133 ft | 367 kts | 245° |
| 2026-04-23 23:42 | -35.62239 | -59.88649 | 38126 ft | 346 kts | 246° |
| 2026-04-23 23:43 | -35.63592 | -59.90996 | 38129 ft | 327 kts | 246° |
| 2026-04-23 23:43 | -35.64859 | -59.93180 | 38128 ft | 309 kts | 246° |
| 2026-04-23 23:43 | -35.66072 | -59.95273 | 38123 ft | 292 kts | 247° |
| 2026-04-23 23:43 | -35.67222 | -59.97262 | 38123 ft | 277 kts | 248° |
| 2026-04-23 23:44 | -35.68306 | -59.99139 | 38118 ft | 264 kts | 248° |
| 2026-04-23 23:44 | -35.69375 | -60.01021 | 38128 ft | 270 kts | 248° |
| 2026-04-23 23:44 | -35.70471 | -60.02932 | 38129 ft | 276 kts | 248° |
| 2026-04-23 23:44 | -35.71601 | -60.04880 | 38133 ft | 282 kts | 248° |
| 2026-04-23 23:45 | -35.72745 | -60.06860 | 38131 ft | 287 kts | 247° |
| 2026-04-23 23:45 | -35.73895 | -60.08856 | 38134 ft | 291 kts | 247° |
| 2026-04-23 23:45 | -35.75094 | -60.10937 | 38142 ft | 296 kts | 247° |
| 2026-04-23 23:45 | -35.76280 | -60.12996 | 38140 ft | 300 kts | 247° |
| 2026-04-23 23:46 | -35.77513 | -60.15152 | 37714 ft | 317 kts | 246° |
| 2026-04-23 23:46 | -35.78816 | -60.17429 | 37271 ft | 333 kts | 245° |
| 2026-04-23 23:46 | -35.80195 | -60.19820 | 36845 ft | 349 kts | 245° |
| 2026-04-23 23:46 | -35.81632 | -60.22313 | 36431 ft | 363 kts | 245° |
| 2026-04-23 23:47 | -35.83104 | -60.24877 | 36156 ft | 374 kts | 244° |
| 2026-04-23 23:47 | -35.86136 | -60.30149 | 36144 ft | 379 kts | 244° |
| 2026-04-23 23:48 | -35.89194 | -60.35499 | 36141 ft | 383 kts | 244° |
| 2026-04-23 23:48 | -35.92285 | -60.40905 | 36140 ft | 387 kts | 244° |
| 2026-04-23 23:49 | -35.96943 | -60.49072 | 36134 ft | 391 kts | 244° |
| 2026-04-23 23:49 | -36.00094 | -60.54608 | 36142 ft | 394 kts | 243° |
| 2026-04-23 23:50 | -36.03256 | -60.60170 | 36133 ft | 397 kts | 243° |
| 2026-04-23 23:50 | -36.06438 | -60.65779 | 36137 ft | 399 kts | 243° |
| 2026-04-23 23:51 | -36.09617 | -60.71390 | 36132 ft | 401 kts | 243° |
| 2026-04-23 23:51 | -36.12821 | -60.77056 | 36135 ft | 403 kts | 243° |
| 2026-04-23 23:52 | -36.16025 | -60.82769 | 36133 ft | 404 kts | 243° |
| 2026-04-23 23:52 | -36.19233 | -60.88500 | 36132 ft | 406 kts | 243° |
| 2026-04-23 23:53 | -36.22436 | -60.94228 | 36129 ft | 407 kts | 243° |
| 2026-04-23 23:53 | -36.25662 | -61.00011 | 36125 ft | 408 kts | 243° |
| 2026-04-23 23:54 | -36.28901 | -61.05825 | 36125 ft | 409 kts | 243° |
| 2026-04-23 23:54 | -36.32108 | -61.11592 | 36128 ft | 409 kts | 243° |
| 2026-04-23 23:55 | -36.35341 | -61.17415 | 36126 ft | 409 kts | 243° |
| 2026-04-23 23:55 | -36.38570 | -61.23241 | 36125 ft | 409 kts | 242° |
| 2026-04-23 23:56 | -36.41770 | -61.29030 | 36119 ft | 409 kts | 242° |
| 2026-04-23 23:56 | -36.44451 | -61.33885 | 36118 ft | 409 kts | 242° |
| 2026-04-23 23:57 | -36.48191 | -61.40673 | 36115 ft | 409 kts | 242° |
| 2026-04-23 23:57 | -36.50876 | -61.45552 | 36120 ft | 409 kts | 242° |
| 2026-04-23 23:58 | -36.54089 | -61.51402 | 36108 ft | 410 kts | 242° |
| 2026-04-23 23:58 | -36.57289 | -61.57236 | 36111 ft | 410 kts | 242° |
| 2026-04-23 23:59 | -36.60507 | -61.63116 | 36108 ft | 410 kts | 242° |
| 2026-04-23 23:59 | -36.63717 | -61.68989 | 36112 ft | 410 kts | 242° |
| 2026-04-24 00:00 | -36.66912 | -61.74846 | 36105 ft | 410 kts | 242° |
| 2026-04-24 00:00 | -36.70118 | -61.80732 | 36103 ft | 410 kts | 242° |
| 2026-04-24 00:01 | -36.73329 | -61.86640 | 36104 ft | 410 kts | 242° |
| 2026-04-24 00:01 | -36.76520 | -61.92519 | 36095 ft | 411 kts | 242° |
| 2026-04-24 00:02 | -36.79727 | -61.98437 | 36098 ft | 411 kts | 242° |
| 2026-04-24 00:02 | -36.82906 | -62.04318 | 36100 ft | 411 kts | 242° |
| 2026-04-24 00:03 | -36.86105 | -62.10243 | 36097 ft | 411 kts | 242° |
| 2026-04-24 00:03 | -36.89301 | -62.16173 | 36101 ft | 411 kts | 242° |
| 2026-04-24 00:04 | -36.92478 | -62.22079 | 36096 ft | 411 kts | 242° |
| 2026-04-24 00:04 | -36.95672 | -62.28025 | 36092 ft | 411 kts | 242° |
| 2026-04-24 00:05 | -36.98844 | -62.33943 | 36094 ft | 411 kts | 242° |
| 2026-04-24 00:05 | -37.02034 | -62.39903 | 36095 ft | 411 kts | 242° |
| 2026-04-24 00:06 | -37.05203 | -62.45838 | 36094 ft | 412 kts | 242° |
| 2026-04-24 00:06 | -37.08391 | -62.51815 | 36092 ft | 412 kts | 242° |
| 2026-04-24 00:07 | -37.11551 | -62.57752 | 36089 ft | 412 kts | 242° |
| 2026-04-24 00:07 | -37.14730 | -62.63735 | 36091 ft | 412 kts | 242° |
| 2026-04-24 00:08 | -37.17908 | -62.69727 | 36086 ft | 412 kts | 242° |
| 2026-04-24 00:08 | -37.21078 | -62.75714 | 36082 ft | 412 kts | 242° |
| 2026-04-24 00:09 | -37.24249 | -62.81714 | 36087 ft | 412 kts | 241° |
| 2026-04-24 00:09 | -37.27394 | -62.87676 | 36082 ft | 412 kts | 241° |
| 2026-04-24 00:10 | -37.30567 | -62.93701 | 36084 ft | 412 kts | 241° |
| 2026-04-24 00:10 | -37.33713 | -62.99687 | 36078 ft | 412 kts | 241° |
| 2026-04-24 00:11 | -37.36380 | -63.06015 | 36079 ft | 408 kts | 249° |
| 2026-04-24 00:11 | -37.38829 | -63.12414 | 36073 ft | 408 kts | 248° |
| 2026-04-24 00:12 | -37.41262 | -63.18873 | 36073 ft | 408 kts | 249° |
| 2026-04-24 00:12 | -37.43710 | -63.25346 | 36069 ft | 408 kts | 249° |
| 2026-04-24 00:13 | -37.46130 | -63.31773 | 36071 ft | 408 kts | 249° |
| 2026-04-24 00:13 | -37.48566 | -63.38253 | 36070 ft | 408 kts | 249° |
| 2026-04-24 00:14 | -37.50983 | -63.44696 | 36065 ft | 408 kts | 249° |
| 2026-04-24 00:14 | -37.53413 | -63.51189 | 36066 ft | 408 kts | 249° |
| 2026-04-24 00:15 | -37.55822 | -63.57637 | 36063 ft | 408 kts | 249° |
| 2026-04-24 00:15 | -37.58241 | -63.64126 | 36065 ft | 408 kts | 249° |
| 2026-04-24 00:16 | -37.60656 | -63.70618 | 36061 ft | 408 kts | 249° |
| 2026-04-24 00:16 | -37.63050 | -63.77067 | 36061 ft | 408 kts | 249° |
| 2026-04-24 00:17 | -37.65461 | -63.83576 | 36063 ft | 408 kts | 249° |
| 2026-04-24 00:17 | -37.67864 | -63.90077 | 36063 ft | 408 kts | 249° |
| 2026-04-24 00:18 | -37.70261 | -63.96577 | 36063 ft | 408 kts | 249° |
| 2026-04-24 00:18 | -37.72645 | -64.03054 | 36060 ft | 408 kts | 249° |
| 2026-04-24 00:19 | -37.75036 | -64.09563 | 36061 ft | 408 kts | 249° |
| 2026-04-24 00:19 | -37.77411 | -64.16045 | 36058 ft | 408 kts | 249° |
| 2026-04-24 00:20 | -37.79800 | -64.22577 | 36063 ft | 408 kts | 249° |
| 2026-04-24 00:20 | -37.82167 | -64.29063 | 36063 ft | 408 kts | 249° |
| 2026-04-24 00:21 | -37.84545 | -64.35594 | 36057 ft | 408 kts | 249° |
| 2026-04-24 00:21 | -37.86921 | -64.42133 | 36058 ft | 408 kts | 249° |
| 2026-04-24 00:22 | -37.88102 | -64.45394 | 35653 ft | 416 kts | 249° |
| 2026-04-24 00:22 | -37.89315 | -64.48742 | 35215 ft | 420 kts | 248° |
| 2026-04-24 00:22 | -37.90533 | -64.52101 | 34858 ft | 421 kts | 248° |
| 2026-04-24 00:22 | -37.91764 | -64.55506 | 34523 ft | 424 kts | 248° |
| 2026-04-24 00:23 | -37.92995 | -64.58917 | 34206 ft | 426 kts | 248° |
| 2026-04-24 00:23 | -37.94232 | -64.62344 | 33856 ft | 427 kts | 248° |
| 2026-04-24 00:23 | -37.95468 | -64.65773 | 33484 ft | 428 kts | 248° |
| 2026-04-24 00:23 | -37.96688 | -64.69166 | 33111 ft | 429 kts | 248° |
| 2026-04-24 00:24 | -37.97927 | -64.72611 | 32747 ft | 430 kts | 248° |
| 2026-04-24 00:24 | -37.99171 | -64.76077 | 32385 ft | 431 kts | 248° |
| 2026-04-24 00:24 | -38.00422 | -64.79563 | 32030 ft | 433 kts | 248° |
| 2026-04-24 00:24 | -38.01666 | -64.83037 | 31681 ft | 434 kts | 248° |
| 2026-04-24 00:25 | -38.02918 | -64.86534 | 31384 ft | 435 kts | 248° |
| 2026-04-24 00:25 | -38.04152 | -64.89988 | 31094 ft | 436 kts | 248° |
| 2026-04-24 00:25 | -38.05412 | -64.93516 | 30804 ft | 438 kts | 248° |
| 2026-04-24 00:25 | -38.06669 | -64.97040 | 30525 ft | 438 kts | 248° |
| 2026-04-24 00:26 | -38.07931 | -65.00585 | 30228 ft | 440 kts | 248° |
| 2026-04-24 00:26 | -38.09175 | -65.04083 | 29919 ft | 438 kts | 248° |
| 2026-04-24 00:26 | -38.10430 | -65.07613 | 29583 ft | 436 kts | 248° |
| 2026-04-24 00:26 | -38.11678 | -65.11130 | 29244 ft | 434 kts | 248° |
| 2026-04-24 00:27 | -38.12917 | -65.14625 | 28916 ft | 432 kts | 248° |
| 2026-04-24 00:27 | -38.14150 | -65.18107 | 28588 ft | 430 kts | 248° |
| 2026-04-24 00:27 | -38.15355 | -65.21514 | 28276 ft | 427 kts | 248° |
| 2026-04-24 00:27 | -38.16572 | -65.24960 | 27981 ft | 425 kts | 248° |
| 2026-04-24 00:28 | -38.17783 | -65.28392 | 27685 ft | 423 kts | 248° |
| 2026-04-24 00:28 | -38.18983 | -65.31800 | 27402 ft | 421 kts | 248° |
| 2026-04-24 00:28 | -38.20167 | -65.35159 | 27207 ft | 419 kts | 248° |
| 2026-04-24 00:28 | -38.21358 | -65.38550 | 26998 ft | 417 kts | 248° |
| 2026-04-24 00:29 | -38.22544 | -65.41926 | 26799 ft | 416 kts | 248° |
| 2026-04-24 00:29 | -38.23719 | -65.45275 | 26584 ft | 414 kts | 248° |
| 2026-04-24 00:29 | -38.24881 | -65.48591 | 26397 ft | 413 kts | 248° |
| 2026-04-24 00:29 | -38.26052 | -65.51936 | 26191 ft | 411 kts | 248° |
| 2026-04-24 00:30 | -38.27214 | -65.55261 | 25993 ft | 410 kts | 248° |
| 2026-04-24 00:30 | -38.28375 | -65.58584 | 25795 ft | 408 kts | 248° |
| 2026-04-24 00:30 | -38.29511 | -65.61841 | 25602 ft | 407 kts | 248° |
| 2026-04-24 00:30 | -38.30658 | -65.65132 | 25323 ft | 407 kts | 248° |
| 2026-04-24 00:31 | -38.31801 | -65.68416 | 24936 ft | 402 kts | 248° |
| 2026-04-24 00:31 | -38.32933 | -65.71669 | 24549 ft | 400 kts | 248° |
| 2026-04-24 00:31 | -38.34056 | -65.74904 | 24181 ft | 397 kts | 248° |
| 2026-04-24 00:31 | -38.35158 | -65.78082 | 23818 ft | 395 kts | 248° |
| 2026-04-24 00:32 | -38.36266 | -65.81280 | 23421 ft | 393 kts | 248° |
| 2026-04-24 00:32 | -38.37367 | -65.84460 | 22981 ft | 390 kts | 248° |
| 2026-04-24 00:32 | -38.38456 | -65.87609 | 22553 ft | 388 kts | 248° |
| 2026-04-24 00:32 | -38.39540 | -65.90748 | 22120 ft | 385 kts | 248° |
| 2026-04-24 00:33 | -38.40611 | -65.93853 | 21714 ft | 383 kts | 248° |
| 2026-04-24 00:33 | -38.41686 | -65.96968 | 21270 ft | 381 kts | 248° |
| 2026-04-24 00:33 | -38.42760 | -66.00048 | 20791 ft | 378 kts | 248° |
| 2026-04-24 00:33 | -38.43814 | -66.03063 | 20326 ft | 375 kts | 248° |
| 2026-04-24 00:34 | -38.44862 | -66.06083 | 19864 ft | 372 kts | 248° |
| 2026-04-24 00:34 | -38.45909 | -66.09103 | 19406 ft | 369 kts | 248° |
| 2026-04-24 00:34 | -38.46942 | -66.12088 | 18952 ft | 366 kts | 248° |
| 2026-04-24 00:34 | -38.47965 | -66.15039 | 18511 ft | 363 kts | 248° |
| 2026-04-24 00:35 | -38.48975 | -66.17956 | 18034 ft | 360 kts | 248° |
| 2026-04-24 00:35 | -38.49979 | -66.20864 | 17533 ft | 357 kts | 248° |
| 2026-04-24 00:35 | -38.50978 | -66.23754 | 17107 ft | 352 kts | 248° |
| 2026-04-24 00:35 | -38.51960 | -66.26605 | 16791 ft | 350 kts | 248° |
| 2026-04-24 00:36 | -38.52941 | -66.29452 | 16487 ft | 349 kts | 248° |
| 2026-04-24 00:36 | -38.53920 | -66.32297 | 16186 ft | 347 kts | 248° |
| 2026-04-24 00:36 | -38.54889 | -66.35114 | 15888 ft | 346 kts | 248° |
| 2026-04-24 00:36 | -38.55857 | -66.37930 | 15591 ft | 344 kts | 248° |
| 2026-04-24 00:37 | -38.56817 | -66.40729 | 15297 ft | 343 kts | 248° |
| 2026-04-24 00:37 | -38.57762 | -66.43483 | 15011 ft | 342 kts | 248° |
| 2026-04-24 00:37 | -38.58711 | -66.46255 | 14735 ft | 340 kts | 248° |
| 2026-04-24 00:37 | -38.59662 | -66.49031 | 14465 ft | 339 kts | 248° |
| 2026-04-24 00:38 | -38.60608 | -66.51793 | 14212 ft | 338 kts | 248° |
| 2026-04-24 00:38 | -38.61537 | -66.54510 | 13961 ft | 337 kts | 248° |
| 2026-04-24 00:38 | -38.62489 | -66.57296 | 13604 ft | 338 kts | 248° |
| 2026-04-24 00:38 | -38.63425 | -66.60044 | 13158 ft | 334 kts | 248° |
| 2026-04-24 00:39 | -38.64342 | -66.62726 | 12704 ft | 332 kts | 248° |
| 2026-04-24 00:39 | -38.65259 | -66.65422 | 12247 ft | 329 kts | 248° |
| 2026-04-24 00:39 | -38.66171 | -66.68102 | 11798 ft | 326 kts | 248° |
| 2026-04-24 00:39 | -38.67078 | -66.70770 | 11320 ft | 323 kts | 248° |
| 2026-04-24 00:40 | -38.67960 | -66.73369 | 10874 ft | 321 kts | 248° |
| 2026-04-24 00:40 | -38.68849 | -66.75983 | 10417 ft | 318 kts | 248° |
| 2026-04-24 00:40 | -38.69741 | -66.78624 | 10063 ft | 327 kts | 249° |
| 2026-04-24 00:40 | -38.70503 | -66.81353 | 9887 ft | 314 kts | 255° |
| 2026-04-24 00:41 | -38.71020 | -66.83906 | 9653 ft | 287 kts | 257° |
| 2026-04-24 00:41 | -38.71552 | -66.86283 | 9405 ft | 267 kts | 254° |
| 2026-04-24 00:41 | -38.71934 | -66.87754 | 9257 ft | 257 kts | 253° |
| 2026-04-24 00:41 | -38.72658 | -66.90604 | 8999 ft | 252 kts | 255° |
| 2026-04-24 00:42 | -38.73181 | -66.92753 | 8806 ft | 253 kts | 255° |
| 2026-04-24 00:42 | -38.73537 | -66.94210 | 8722 ft | 252 kts | 255° |
| 2026-04-24 00:42 | -38.74061 | -66.96343 | 8695 ft | 252 kts | 255° |
| 2026-04-24 00:42 | -38.74584 | -66.98473 | 8667 ft | 254 kts | 255° |
| 2026-04-24 00:43 | -38.75115 | -67.00641 | 8638 ft | 255 kts | 255° |
| 2026-04-24 00:43 | -38.75647 | -67.02811 | 8611 ft | 255 kts | 255° |
| 2026-04-24 00:43 | -38.76179 | -67.04987 | 8583 ft | 254 kts | 255° |
| 2026-04-24 00:43 | -38.76706 | -67.07142 | 8553 ft | 254 kts | 255° |
| 2026-04-24 00:44 | -38.77234 | -67.09308 | 8534 ft | 254 kts | 255° |
| 2026-04-24 00:44 | -38.77764 | -67.11472 | 8508 ft | 254 kts | 255° |
| 2026-04-24 00:44 | -38.78284 | -67.13608 | 8482 ft | 254 kts | 255° |
| 2026-04-24 00:44 | -38.78829 | -67.15853 | 8460 ft | 278 kts | 255° |
| 2026-04-24 00:45 | -38.79422 | -67.18302 | 8448 ft | 293 kts | 255° |
| 2026-04-24 00:45 | -38.80040 | -67.20828 | 8443 ft | 298 kts | 255° |
| 2026-04-24 00:45 | -38.80661 | -67.23383 | 8430 ft | 301 kts | 255° |
| 2026-04-24 00:45 | -38.81279 | -67.25926 | 8413 ft | 301 kts | 255° |
| 2026-04-24 00:46 | -38.81900 | -67.28495 | 8392 ft | 302 kts | 255° |
| 2026-04-24 00:46 | -38.82526 | -67.31078 | 8374 ft | 302 kts | 255° |
| 2026-04-24 00:46 | -38.83147 | -67.33649 | 8355 ft | 303 kts | 255° |
| 2026-04-24 00:46 | -38.83771 | -67.36229 | 8333 ft | 301 kts | 255° |
| 2026-04-24 00:47 | -38.84386 | -67.38778 | 8311 ft | 301 kts | 255° |
| 2026-04-24 00:47 | -38.85006 | -67.41355 | 8291 ft | 302 kts | 255° |
| 2026-04-24 00:47 | -38.85621 | -67.43904 | 8175 ft | 296 kts | 255° |
| 2026-04-24 00:47 | -38.86195 | -67.46278 | 7990 ft | 277 kts | 255° |
| 2026-04-24 00:48 | -38.86744 | -67.48573 | 7783 ft | 261 kts | 255° |
| 2026-04-24 00:48 | -38.87271 | -67.50765 | 7575 ft | 253 kts | 256° |
| 2026-04-24 00:48 | -38.87784 | -67.52915 | 7371 ft | 252 kts | 256° |
| 2026-04-24 00:48 | -38.88301 | -67.55070 | 7169 ft | 252 kts | 256° |
| 2026-04-24 00:49 | -38.88810 | -67.57203 | 6975 ft | 252 kts | 256° |
| 2026-04-24 00:49 | -38.89326 | -67.59352 | 6779 ft | 251 kts | 256° |
| 2026-04-24 00:49 | -38.89835 | -67.61491 | 6586 ft | 250 kts | 256° |
| 2026-04-24 00:49 | -38.90348 | -67.63632 | 6369 ft | 251 kts | 256° |
| 2026-04-24 00:50 | -38.90860 | -67.65787 | 6028 ft | 254 kts | 256° |
| 2026-04-24 00:50 | -38.91376 | -67.67958 | 5656 ft | 254 kts | 256° |
| 2026-04-24 00:50 | -38.91894 | -67.70125 | 5278 ft | 254 kts | 255° |
| 2026-04-24 00:50 | -38.92403 | -67.72269 | 5074 ft | 249 kts | 255° |
| 2026-04-24 00:51 | -38.92898 | -67.74331 | 5066 ft | 229 kts | 256° |
| 2026-04-24 00:51 | -38.93344 | -67.76212 | 5054 ft | 212 kts | 256° |
| 2026-04-24 00:51 | -38.93757 | -67.77958 | 4979 ft | 202 kts | 256° |
| 2026-04-24 00:51 | -38.94157 | -67.79654 | 4886 ft | 194 kts | 256° |
| 2026-04-24 00:52 | -38.94528 | -67.81293 | 4786 ft | 187 kts | 261° |
| 2026-04-24 00:52 | -38.94591 | -67.82937 | 4686 ft | 182 kts | 271° |
| 2026-04-24 00:52 | -38.94649 | -67.84559 | 4551 ft | 180 kts | 266° |
| 2026-04-24 00:52 | -38.94730 | -67.86163 | 4402 ft | 181 kts | 268° |
| 2026-04-24 00:53 | -38.94785 | -67.87759 | 4267 ft | 180 kts | 268° |
| 2026-04-24 00:53 | -38.94847 | -67.89372 | 4120 ft | 180 kts | 267° |
| 2026-04-24 00:53 | -38.94902 | -67.90984 | 3961 ft | 180 kts | 266° |
| 2026-04-24 00:53 | -38.94956 | -67.92571 | 3807 ft | 179 kts | 268° |
| 2026-04-24 00:54 | -38.94941 | -67.94174 | 3658 ft | 178 kts | 269° |
| 2026-04-24 00:54 | -38.94941 | -67.95744 | 3657 ft | 175 kts | 268° |
| 2026-04-24 00:54 | -38.94941 | -67.97351 | 3403 ft | 183 kts | 268° |
| 2026-04-24 00:54 | -38.94939 | -67.98992 | 3058 ft | 183 kts | 267° |
| 2026-04-24 00:55 | -38.94937 | -68.00618 | 2709 ft | 178 kts | 266° |
| 2026-04-24 00:55 | -38.94929 | -68.02115 | 2641 ft | 167 kts | 265° |
| 2026-04-24 00:55 | -38.94935 | -68.03630 | 2511 ft | 167 kts | 265° |
| 2026-04-24 00:55 | -38.94922 | -68.04956 | 2203 ft | 141 kts | 264° |
| 2026-04-24 00:56 | -38.94920 | -68.05629 | 2045 ft | 135 kts | 263° |
| 2026-04-24 00:56 | -38.94917 | -68.05914 | 1999 ft | 134 kts | 262° |
| 2026-04-24 00:56 | -38.94918 | -68.07118 | 1936 ft | 134 kts | 262° |
| 2026-04-24 00:56 | -38.94921 | -68.07260 | 1930 ft | 135 kts | 263° |
| 2026-04-24 00:57 | -38.94899 | -68.08385 | 1779 ft | 136 kts | 264° |
| 2026-04-24 00:57 | -38.94935 | -68.09604 | 1695 ft | 138 kts | 262° |
| 2026-04-24 00:57 | -38.94909 | -68.12020 | 1241 ft | 125 kts | 264° |
| 2026-04-24 00:58 | -38.94908 | -68.13152 | 1071 ft | 132 kts | 268° |
| 2026-04-24 00:58 | -38.94903 | -68.14298 | 894 ft | 120 kts | 266° |
| 2026-04-24 00:58 | -38.94906 | -68.15147 | 887 ft | 52 kts | 274° |
| 2026-04-24 00:58 | -38.94892 | -68.15258 | 887 ft | 2 kts | 238° |
| 2026-04-24 00:59 | -38.94899 | -68.15232 | 887 ft | 9 kts | 91° |
| 2026-04-24 00:59 | -38.94919 | -68.15120 | 887 ft | 13 kts | 120° |
| 2026-04-24 00:59 | -38.94946 | -68.15075 | 887 ft | 0 kts | 134° |
| 2026-04-24 00:59 | -38.94958 | -68.15058 | 887 ft | 9 kts | 134° |
| 2026-04-24 01:00 | -38.95020 | -68.14979 | 887 ft | 14 kts | 135° |
| 2026-04-24 01:00 | -38.95056 | -68.14935 | 888 ft | 16 kts | 136° |
| 2026-04-24 01:00 | -38.95065 | -68.14924 | 888 ft | 16 kts | 134° |
| 2026-04-24 01:00 | -38.95090 | -68.14774 | 887 ft | 20 kts | 89° |
| 2026-04-24 01:01 | -38.95092 | -68.14624 | 887 ft | 14 kts | 91° |
| 2026-04-24 01:01 | -38.95095 | -68.14481 | 886 ft | 18 kts | 89° |
| 2026-04-24 01:01 | -38.95093 | -68.14303 | 886 ft | 22 kts | 92° |
| 2026-04-24 01:01 | -38.95095 | -68.14150 | 886 ft | 14 kts | 90° |
| 2026-04-24 01:02 | -38.95115 | -68.14115 | 885 ft | 5 kts | 183° |
| 2026-04-24 01:02 | -38.95138 | -68.14134 | 886 ft | 0 kts | 221° |